sensor_id;sensor_type;location;lat;lon;timestamp;pressure;altitude;pressure_sealevel;temperature;humidity
46394;BME280;32099;53.588;10.176;2022-10-04T00:01:19;101914.09;;;12.03;84.50
46394;BME280;32099;53.588;10.176;2022-10-04T00:03:48;101920.59;;;12.02;84.52
46394;BME280;32099;53.588;10.176;2022-10-04T00:06:17;101919.03;;;12.00;84.58
46394;BME280;32099;53.588;10.176;2022-10-04T00:08:46;101921.41;;;11.95;84.32
46394;BME280;32099;53.588;10.176;2022-10-04T00:11:27;101922.56;;;11.92;84.42
46394;BME280;32099;53.588;10.176;2022-10-04T00:13:58;101921.03;;;11.89;83.86
46394;BME280;32099;53.588;10.176;2022-10-04T00:16:27;101929.53;;;11.86;84.21
46394;BME280;32099;53.588;10.176;2022-10-04T00:19:20;101922.53;;;11.84;83.91
46394;BME280;32099;53.588;10.176;2022-10-04T00:24:35;101916.31;;;11.73;83.88
46394;BME280;32099;53.588;10.176;2022-10-04T00:27:20;101913.91;;;11.70;84.18
46394;BME280;32099;53.588;10.176;2022-10-04T00:32:26;101908.59;;;11.61;84.17
46394;BME280;32099;53.588;10.176;2022-10-04T00:34:56;101906.88;;;11.60;84.34
46394;BME280;32099;53.588;10.176;2022-10-04T00:37:24;101907.88;;;11.58;84.02
46394;BME280;32099;53.588;10.176;2022-10-04T00:40:10;101914.53;;;11.56;84.01
46394;BME280;32099;53.588;10.176;2022-10-04T00:42:43;101914.97;;;11.51;83.88
46394;BME280;32099;53.588;10.176;2022-10-04T00:45:25;101909.88;;;11.48;83.73
46394;BME280;32099;53.588;10.176;2022-10-04T00:47:57;101903.69;;;11.46;83.86
46394;BME280;32099;53.588;10.176;2022-10-04T00:50:32;101902.47;;;11.40;83.54
46394;BME280;32099;53.588;10.176;2022-10-04T00:53:01;101901.78;;;11.38;83.26
46394;BME280;32099;53.588;10.176;2022-10-04T00:55:39;101896.25;;;11.30;84.23
46394;BME280;32099;53.588;10.176;2022-10-04T00:58:22;101895.88;;;11.25;84.05
46394;BME280;32099;53.588;10.176;2022-10-04T01:00:52;101889.88;;;11.21;84.41
46394;BME280;32099;53.588;10.176;2022-10-04T01:03:28;101891.91;;;11.19;84.10
46394;BME280;32099;53.588;10.176;2022-10-04T01:05:57;101878.56;;;11.16;84.17
46394;BME280;32099;53.588;10.176;2022-10-04T01:08:31;101881.28;;;11.16;84.02
46394;BME280;32099;53.588;10.176;2022-10-04T01:11:05;101886.91;;;11.15;84.52
46394;BME280;32099;53.588;10.176;2022-10-04T01:13:38;101878.72;;;11.15;84.29
46394;BME280;32099;53.588;10.176;2022-10-04T01:18:43;101880.06;;;11.10;84.26
46394;BME280;32099;53.588;10.176;2022-10-04T01:21:20;101883.66;;;11.11;84.22
46394;BME280;32099;53.588;10.176;2022-10-04T01:28:50;101862.84;;;11.10;84.35
46394;BME280;32099;53.588;10.176;2022-10-04T01:31:16;101845.91;;;11.06;84.59
46394;BME280;32099;53.588;10.176;2022-10-04T01:33:41;101856.13;;;11.04;84.95
46394;BME280;32099;53.588;10.176;2022-10-04T01:36:07;101860.59;;;11.05;84.75
46394;BME280;32099;53.588;10.176;2022-10-04T01:38:32;101866.03;;;11.05;84.77
46394;BME280;32099;53.588;10.176;2022-10-04T01:40:58;101867.44;;;11.09;84.67
46394;BME280;32099;53.588;10.176;2022-10-04T01:43:29;101859.25;;;11.09;84.91
46394;BME280;32099;53.588;10.176;2022-10-04T01:46:00;101856.97;;;11.05;84.86
46394;BME280;32099;53.588;10.176;2022-10-04T01:48:31;101856.66;;;11.08;84.71
46394;BME280;32099;53.588;10.176;2022-10-04T01:51:01;101857.69;;;11.07;85.28
46394;BME280;32099;53.588;10.176;2022-10-04T01:53:34;101847.63;;;11.07;84.72
46394;BME280;32099;53.588;10.176;2022-10-04T01:56:18;101844.91;;;11.07;84.88
46394;BME280;32099;53.588;10.176;2022-10-04T01:58:51;101846.75;;;11.07;84.94
46394;BME280;32099;53.588;10.176;2022-10-04T02:01:24;101844.22;;;11.05;84.52
46394;BME280;32099;53.588;10.176;2022-10-04T02:06:34;101840.06;;;11.01;84.58
46394;BME280;32099;53.588;10.176;2022-10-04T02:09:07;101832.06;;;11.00;84.32
46394;BME280;32099;53.588;10.176;2022-10-04T02:11:36;101835.97;;;10.97;84.41
46394;BME280;32099;53.588;10.176;2022-10-04T02:14:05;101834.25;;;10.96;84.52
46394;BME280;32099;53.588;10.176;2022-10-04T02:16:40;101829.81;;;10.95;84.67
46394;BME280;32099;53.588;10.176;2022-10-04T02:19:08;101827.22;;;10.93;84.94
46394;BME280;32099;53.588;10.176;2022-10-04T02:21:36;101821.75;;;10.93;85.17
46394;BME280;32099;53.588;10.176;2022-10-04T02:24:02;101822.63;;;10.94;84.77
46394;BME280;32099;53.588;10.176;2022-10-04T02:26:30;101821.75;;;10.93;84.93
46394;BME280;32099;53.588;10.176;2022-10-04T02:28:56;101817.47;;;10.91;85.13
46394;BME280;32099;53.588;10.176;2022-10-04T02:31:21;101827.91;;;10.95;85.39
46394;BME280;32099;53.588;10.176;2022-10-04T02:34:06;101825.88;;;10.98;85.66
46394;BME280;32099;53.588;10.176;2022-10-04T02:36:32;101831.34;;;10.98;85.63
46394;BME280;32099;53.588;10.176;2022-10-04T02:39:00;101819.09;;;11.02;85.75
46394;BME280;32099;53.588;10.176;2022-10-04T02:41:50;101814.19;;;11.05;85.75
46394;BME280;32099;53.588;10.176;2022-10-04T02:44:26;101809.41;;;11.07;85.35
46394;BME280;32099;53.588;10.176;2022-10-04T02:49:45;101805.50;;;11.10;85.70
46394;BME280;32099;53.588;10.176;2022-10-04T02:54:43;101803.00;;;11.17;85.82
46394;BME280;32099;53.588;10.176;2022-10-04T02:57:17;101800.78;;;11.20;85.90
46394;BME280;32099;53.588;10.176;2022-10-04T02:59:44;101795.16;;;11.22;85.99
46394;BME280;32099;53.588;10.176;2022-10-04T03:02:24;101789.56;;;11.23;85.74
46394;BME280;32099;53.588;10.176;2022-10-04T03:04:52;101779.47;;;11.24;85.72
46394;BME280;32099;53.588;10.176;2022-10-04T03:07:20;101775.72;;;11.25;86.08
46394;BME280;32099;53.588;10.176;2022-10-04T03:09:47;101779.34;;;11.25;85.87
46394;BME280;32099;53.588;10.176;2022-10-04T03:12:13;101790.09;;;11.27;85.74
46394;BME280;32099;53.588;10.176;2022-10-04T03:14:39;101788.75;;;11.31;85.37
46394;BME280;32099;53.588;10.176;2022-10-04T03:17:06;101798.31;;;11.35;85.42
46394;BME280;32099;53.588;10.176;2022-10-04T03:19:32;101794.41;;;11.38;85.18
46394;BME280;32099;53.588;10.176;2022-10-04T03:22:10;101793.53;;;11.37;85.54
46394;BME280;32099;53.588;10.176;2022-10-04T03:24:37;101791.69;;;11.38;85.57
46394;BME280;32099;53.588;10.176;2022-10-04T03:27:12;101787.06;;;11.38;85.33
46394;BME280;32099;53.588;10.176;2022-10-04T03:29:41;101792.34;;;11.40;85.25
46394;BME280;32099;53.588;10.176;2022-10-04T03:32:08;101789.09;;;11.36;85.32
46394;BME280;32099;53.588;10.176;2022-10-04T03:34:39;101796.81;;;11.41;85.20
46394;BME280;32099;53.588;10.176;2022-10-04T03:37:12;101793.22;;;11.40;85.22
46394;BME280;32099;53.588;10.176;2022-10-04T03:39:41;101789.78;;;11.38;85.51
46394;BME280;32099;53.588;10.176;2022-10-04T03:42:10;101787.38;;;11.35;85.63
46394;BME280;32099;53.588;10.176;2022-10-04T03:44:39;101789.09;;;11.36;85.74
46394;BME280;32099;53.588;10.176;2022-10-04T03:47:07;101788.25;;;11.36;85.96
46394;BME280;32099;53.588;10.176;2022-10-04T03:49:35;101793.88;;;11.34;85.98
46394;BME280;32099;53.588;10.176;2022-10-04T03:52:02;101783.09;;;11.33;85.86
46394;BME280;32099;53.588;10.176;2022-10-04T03:54:28;101778.50;;;11.33;85.98
46394;BME280;32099;53.588;10.176;2022-10-04T03:56:55;101780.56;;;11.31;86.00
46394;BME280;32099;53.588;10.176;2022-10-04T03:59:23;101795.94;;;11.32;85.56
46394;BME280;32099;53.588;10.176;2022-10-04T04:02:00;101780.38;;;11.33;85.97
46394;BME280;32099;53.588;10.176;2022-10-04T04:04:41;101786.16;;;11.30;86.09
46394;BME280;32099;53.588;10.176;2022-10-04T04:07:29;101788.88;;;11.30;85.85
46394;BME280;32099;53.588;10.176;2022-10-04T04:10:03;101786.16;;;11.30;86.12
46394;BME280;32099;53.588;10.176;2022-10-04T04:12:43;101779.16;;;11.27;86.00
46394;BME280;32099;53.588;10.176;2022-10-04T04:15:14;101786.50;;;11.26;85.88
46394;BME280;32099;53.588;10.176;2022-10-04T04:17:41;101782.91;;;11.26;86.13
46394;BME280;32099;53.588;10.176;2022-10-04T04:20:30;101784.63;;;11.27;85.72
46394;BME280;32099;53.588;10.176;2022-10-04T04:23:03;101788.88;;;11.30;85.59
46394;BME280;32099;53.588;10.176;2022-10-04T04:25:37;101786.66;;;11.25;85.67
46394;BME280;32099;53.588;10.176;2022-10-04T04:30:58;101787.13;;;11.20;85.81
46394;BME280;32099;53.588;10.176;2022-10-04T04:33:30;101790.03;;;11.19;85.83
46394;BME280;32099;53.588;10.176;2022-10-04T04:36:04;101792.59;;;11.20;86.00
46394;BME280;32099;53.588;10.176;2022-10-04T04:38:30;101781.69;;;11.20;85.87
46394;BME280;32099;53.588;10.176;2022-10-04T04:40:56;101787.84;;;11.22;85.85
46394;BME280;32099;53.588;10.176;2022-10-04T04:43:33;101780.66;;;11.21;85.84
46394;BME280;32099;53.588;10.176;2022-10-04T04:45:59;101786.13;;;11.21;85.94
46394;BME280;32099;53.588;10.176;2022-10-04T04:48:24;101770.94;;;11.19;85.79
46394;BME280;32099;53.588;10.176;2022-10-04T04:50:51;101772.97;;;11.17;85.76
46394;BME280;32099;53.588;10.176;2022-10-04T04:53:25;101769.34;;;11.16;85.77
46394;BME280;32099;53.588;10.176;2022-10-04T04:55:56;101765.97;;;11.14;86.05
46394;BME280;32099;53.588;10.176;2022-10-04T04:58:25;101758.44;;;11.16;86.02
46394;BME280;32099;53.588;10.176;2022-10-04T05:03:39;101753.16;;;11.15;86.16
46394;BME280;32099;53.588;10.176;2022-10-04T05:06:04;101746.84;;;11.14;86.21
46394;BME280;32099;53.588;10.176;2022-10-04T05:08:48;101752.31;;;11.14;86.31
46394;BME280;32099;53.588;10.176;2022-10-04T05:11:14;101753.84;;;11.17;86.25
46394;BME280;32099;53.588;10.176;2022-10-04T05:16:22;101747.59;;;11.24;86.19
46394;BME280;32099;53.588;10.176;2022-10-04T05:18:59;101752.56;;;11.29;85.74
46394;BME280;32099;53.588;10.176;2022-10-04T05:21:30;101755.97;;;11.31;85.46
46394;BME280;32099;53.588;10.176;2022-10-04T05:23:57;101756.66;;;11.33;85.25
46394;BME280;32099;53.588;10.176;2022-10-04T05:26:34;101765.72;;;11.34;85.30
46394;BME280;32099;53.588;10.176;2022-10-04T05:29:01;101758.72;;;11.31;85.30
46394;BME280;32099;53.588;10.176;2022-10-04T05:34:21;101759.88;;;11.29;85.64
46394;BME280;32099;53.588;10.176;2022-10-04T05:37:05;101759.19;;;11.26;85.60
46394;BME280;32099;53.588;10.176;2022-10-04T05:39:58;101749.31;;;11.25;85.56
46394;BME280;32099;53.588;10.176;2022-10-04T05:42:37;101761.38;;;11.23;85.78
46394;BME280;32099;53.588;10.176;2022-10-04T05:45:16;101758.66;;;11.23;85.74
46394;BME280;32099;53.588;10.176;2022-10-04T05:47:44;101742.94;;;11.17;85.61
46394;BME280;32099;53.588;10.176;2022-10-04T05:50:55;101766.53;;;11.26;85.72
46394;BME280;32099;53.588;10.176;2022-10-04T06:01:45;101764.81;;;11.25;86.54
46394;BME280;32099;53.588;10.176;2022-10-04T06:04:23;101768.06;;;11.29;86.19
46394;BME280;32099;53.588;10.176;2022-10-04T06:09:49;101763.81;;;11.34;86.20
46394;BME280;32099;53.588;10.176;2022-10-04T06:12:45;101766.22;;;11.37;85.93
46394;BME280;32099;53.588;10.176;2022-10-04T06:20:53;101762.16;;;11.41;85.87
46394;BME280;32099;53.588;10.176;2022-10-04T06:23:50;101762.00;;;11.43;85.66
46394;BME280;32099;53.588;10.176;2022-10-04T06:26:28;101763.19;;;11.40;85.97
46394;BME280;32099;53.588;10.176;2022-10-04T06:29:00;101760.28;;;11.42;85.66
46394;BME280;32099;53.588;10.176;2022-10-04T06:39:43;101756.47;;;11.26;86.11
46394;BME280;32099;53.588;10.176;2022-10-04T06:42:42;101759.19;;;11.26;86.20
46394;BME280;32099;53.588;10.176;2022-10-04T06:48:24;101749.81;;;11.29;85.85
46394;BME280;32099;53.588;10.176;2022-10-04T06:51:00;101746.28;;;11.37;85.68
46394;BME280;32099;53.588;10.176;2022-10-04T06:59:14;101760.19;;;11.60;85.72
46394;BME280;32099;53.588;10.176;2022-10-04T07:01:52;101757.31;;;11.70;85.95
46394;BME280;32099;53.588;10.176;2022-10-04T07:15:44;101765.50;;;12.46;85.19
46394;BME280;32099;53.588;10.176;2022-10-04T07:18:17;101762.59;;;12.56;85.31
46394;BME280;32099;53.588;10.176;2022-10-04T07:20:50;101772.53;;;12.65;84.62
46394;BME280;32099;53.588;10.176;2022-10-04T07:23:26;101774.56;;;12.71;84.81
46394;BME280;32099;53.588;10.176;2022-10-04T07:26:00;101772.84;;;12.78;84.82
46394;BME280;32099;53.588;10.176;2022-10-04T07:28:33;101776.63;;;12.86;84.84
46394;BME280;32099;53.588;10.176;2022-10-04T07:31:30;101780.19;;;12.86;84.95
46394;BME280;32099;53.588;10.176;2022-10-04T07:34:00;101778.81;;;12.90;84.72
46394;BME280;32099;53.588;10.176;2022-10-04T07:36:38;101772.81;;;12.95;84.76
46394;BME280;32099;53.588;10.176;2022-10-04T07:39:14;101775.88;;;13.00;84.81
46394;BME280;32099;53.588;10.176;2022-10-04T07:44:29;101768.69;;;13.07;84.55
46394;BME280;32099;53.588;10.176;2022-10-04T07:47:01;101770.72;;;13.14;84.75
46394;BME280;32099;53.588;10.176;2022-10-04T07:49:37;101780.31;;;13.18;84.63
46394;BME280;32099;53.588;10.176;2022-10-04T07:52:22;101780.66;;;13.23;84.42
46394;BME280;32099;53.588;10.176;2022-10-04T07:55:49;101786.44;;;13.28;84.74
46394;BME280;32099;53.588;10.176;2022-10-04T07:58:06;101778.56;;;13.33;84.82
46394;BME280;32099;53.588;10.176;2022-10-04T08:06:19;101785.91;;;13.41;84.83
46394;BME280;32099;53.588;10.176;2022-10-04T08:12:03;101778.16;;;13.53;84.39
46394;BME280;32099;53.588;10.176;2022-10-04T08:17:56;101778.28;;;13.68;84.19
46394;BME280;32099;53.588;10.176;2022-10-04T08:20:32;101776.34;;;13.77;83.94
46394;BME280;32099;53.588;10.176;2022-10-04T08:51:24;101777.28;;;14.85;81.48
46394;BME280;32099;53.588;10.176;2022-10-04T08:54:17;101781.00;;;14.92;81.60
46394;BME280;32099;53.588;10.176;2022-10-04T08:59:43;101788.91;;;15.10;81.24
46394;BME280;32099;53.588;10.176;2022-10-04T09:16:43;101789.16;;;15.31;80.36
46394;BME280;32099;53.588;10.176;2022-10-04T09:19:29;101777.44;;;15.37;80.90
46394;BME280;32099;53.588;10.176;2022-10-04T09:22:21;101775.72;;;15.36;80.44
46394;BME280;32099;53.588;10.176;2022-10-04T09:28:18;101769.38;;;15.50;80.28
46394;BME280;32099;53.588;10.176;2022-10-04T09:31:00;101763.97;;;15.57;80.13
46394;BME280;32099;53.588;10.176;2022-10-04T09:33:48;101762.06;;;15.57;79.92
46394;BME280;32099;53.588;10.176;2022-10-04T09:36:25;101760.22;;;15.65;79.76
46394;BME280;32099;53.588;10.176;2022-10-04T09:39:09;101756.53;;;15.72;79.96
46394;BME280;32099;53.588;10.176;2022-10-04T09:41:57;101752.34;;;15.77;79.65
46394;BME280;32099;53.588;10.176;2022-10-04T09:47:42;101757.66;;;15.93;79.47
46394;BME280;32099;53.588;10.176;2022-10-04T09:59:36;101754.06;;;16.36;78.16
46394;BME280;32099;53.588;10.176;2022-10-04T10:04:39;101757.81;;;16.50;77.72
46394;BME280;32099;53.588;10.176;2022-10-04T10:07:22;101750.84;;;16.54;77.81
46394;BME280;32099;53.588;10.176;2022-10-04T10:19:57;101752.22;;;16.65;77.22
46394;BME280;32099;53.588;10.176;2022-10-04T10:37:55;101746.84;;;17.07;75.42
46394;BME280;32099;53.588;10.176;2022-10-04T10:40:55;101737.25;;;17.38;74.59
46394;BME280;32099;53.588;10.176;2022-10-04T10:43:40;101737.78;;;17.62;74.10
46394;BME280;32099;53.588;10.176;2022-10-04T11:06:54;101724.50;;;17.92;70.58
46394;BME280;32099;53.588;10.176;2022-10-04T11:12:26;101718.44;;;18.10;71.88
46394;BME280;32099;53.588;10.176;2022-10-04T11:18:12;101724.16;;;18.15;71.24
46394;BME280;32099;53.588;10.176;2022-10-04T11:23:48;101722.06;;;18.31;69.68
46394;BME280;32099;53.588;10.176;2022-10-04T11:26:42;101718.66;;;18.42;68.19
46394;BME280;32099;53.588;10.176;2022-10-04T11:29:27;101716.31;;;18.39;65.18
46394;BME280;32099;53.588;10.176;2022-10-04T11:40:46;101706.56;;;18.43;68.76
46394;BME280;32099;53.588;10.176;2022-10-04T11:49:55;101695.28;;;18.72;67.61
46394;BME280;32099;53.588;10.176;2022-10-04T11:55:20;101679.13;;;18.75;66.50
46394;BME280;32099;53.588;10.176;2022-10-04T12:01:11;101668.91;;;18.76;68.47
46394;BME280;32099;53.588;10.176;2022-10-04T12:09:40;101663.63;;;18.47;67.60
46394;BME280;32099;53.588;10.176;2022-10-04T12:18:06;101656.22;;;18.28;68.40
46394;BME280;32099;53.588;10.176;2022-10-04T12:23:28;101652.78;;;18.73;64.90
46394;BME280;32099;53.588;10.176;2022-10-04T12:31:48;101637.34;;;19.24;67.15
46394;BME280;32099;53.588;10.176;2022-10-04T12:51:02;101619.16;;;21.12;56.32
46394;BME280;32099;53.588;10.176;2022-10-04T12:59:15;101606.63;;;20.03;61.58
46394;BME280;32099;53.588;10.176;2022-10-04T13:04:31;101600.59;;;19.87;60.77
46394;BME280;32099;53.588;10.176;2022-10-04T13:09:55;101593.72;;;19.65;62.19
46394;BME280;32099;53.588;10.176;2022-10-04T13:15:37;101591.03;;;19.51;62.16
46394;BME280;32099;53.588;10.176;2022-10-04T13:18:23;101595.31;;;19.47;56.50
46394;BME280;32099;53.588;10.176;2022-10-04T13:21:02;101598.97;;;19.41;61.17
46394;BME280;32099;53.588;10.176;2022-10-04T13:26:20;101607.66;;;19.45;58.67
46394;BME280;32099;53.588;10.176;2022-10-04T13:29:19;101594.47;;;19.47;61.23
46394;BME280;32099;53.588;10.176;2022-10-04T13:32:09;101589.72;;;19.54;60.00
46394;BME280;32099;53.588;10.176;2022-10-04T13:34:43;101587.19;;;19.52;57.49
46394;BME280;32099;53.588;10.176;2022-10-04T13:42:57;101587.16;;;19.59;62.55
46394;BME280;32099;53.588;10.176;2022-10-04T13:48:37;101579.84;;;19.71;59.59
46394;BME280;32099;53.588;10.176;2022-10-04T13:51:27;101570.50;;;19.66;60.76
46394;BME280;32099;53.588;10.176;2022-10-04T13:54:37;101547.97;;;19.62;62.16
46394;BME280;32099;53.588;10.176;2022-10-04T13:57:30;101544.53;;;19.67;59.05
46394;BME280;32099;53.588;10.176;2022-10-04T14:00:11;101527.72;;;19.68;60.47
46394;BME280;32099;53.588;10.176;2022-10-04T14:11:06;101529.91;;;19.60;61.32
46394;BME280;32099;53.588;10.176;2022-10-04T14:19:42;101530.81;;;19.79;59.15
46394;BME280;32099;53.588;10.176;2022-10-04T14:22:41;101529.75;;;19.80;61.68
46394;BME280;32099;53.588;10.176;2022-10-04T14:28:35;101527.22;;;19.78;59.69
46394;BME280;32099;53.588;10.176;2022-10-04T14:43:01;101502.91;;;19.30;61.33
46394;BME280;32099;53.588;10.176;2022-10-04T14:53:53;101493.75;;;18.84;62.43
46394;BME280;32099;53.588;10.176;2022-10-04T14:56:55;101499.78;;;18.74;62.01
46394;BME280;32099;53.588;10.176;2022-10-04T15:15:20;101502.88;;;18.39;62.54
46394;BME280;32099;53.588;10.176;2022-10-04T15:17:57;101499.50;;;18.30;62.36
46394;BME280;32099;53.588;10.176;2022-10-04T15:20:32;101494.00;;;18.23;63.16
46394;BME280;32099;53.588;10.176;2022-10-04T15:23:17;101494.22;;;18.22;64.50
46394;BME280;32099;53.588;10.176;2022-10-04T15:25:55;101511.44;;;18.17;63.96
46394;BME280;32099;53.588;10.176;2022-10-04T15:31:15;101511.44;;;18.10;65.34
46394;BME280;32099;53.588;10.176;2022-10-04T15:34:10;101514.63;;;18.07;64.36
46394;BME280;32099;53.588;10.176;2022-10-04T15:37:03;101511.22;;;18.05;64.17
46394;BME280;32099;53.588;10.176;2022-10-04T15:39:53;101514.63;;;18.00;65.57
46394;BME280;32099;53.588;10.176;2022-10-04T15:56:30;101480.25;;;17.69;64.51
46394;BME280;32099;53.588;10.176;2022-10-04T16:02:10;101475.38;;;17.65;65.33
46394;BME280;32099;53.588;10.176;2022-10-04T16:05:02;101469.88;;;17.65;66.10
46394;BME280;32099;53.588;10.176;2022-10-04T16:07:51;101470.69;;;17.58;66.25
46394;BME280;32099;53.588;10.176;2022-10-04T16:13:36;101461.16;;;17.41;66.97
46394;BME280;32099;53.588;10.176;2022-10-04T16:21:27;101455.84;;;17.26;67.40
46394;BME280;32099;53.588;10.176;2022-10-04T16:29:12;101468.53;;;17.00;68.06
46394;BME280;32099;53.588;10.176;2022-10-04T16:31:58;101461.72;;;16.96;68.13
46394;BME280;32099;53.588;10.176;2022-10-04T16:39:54;101451.09;;;16.79;68.14
46394;BME280;32099;53.588;10.176;2022-10-04T16:56:11;101458.25;;;16.25;69.40
46394;BME280;32099;53.588;10.176;2022-10-04T17:06:34;101454.25;;;15.93;70.24
46394;BME280;32099;53.588;10.176;2022-10-04T17:09:23;101451.81;;;15.83;70.24
46394;BME280;32099;53.588;10.176;2022-10-04T17:12:17;101458.13;;;15.77;70.36
46394;BME280;32099;53.588;10.176;2022-10-04T17:17:43;101449.34;;;15.60;70.62
46394;BME280;32099;53.588;10.176;2022-10-04T17:26:13;101445.38;;;15.40;71.09
46394;BME280;32099;53.588;10.176;2022-10-04T17:28:56;101445.31;;;15.34;71.67
46394;BME280;32099;53.588;10.176;2022-10-04T17:31:46;101449.03;;;15.26;71.39
46394;BME280;32099;53.588;10.176;2022-10-04T17:34:50;101457.69;;;15.23;71.77
46394;BME280;32099;53.588;10.176;2022-10-04T17:37:35;101458.47;;;15.17;71.72
46394;BME280;32099;53.588;10.176;2022-10-04T17:42:42;101459.88;;;15.06;72.02
46394;BME280;32099;53.588;10.176;2022-10-04T17:45:19;101469.06;;;14.98;72.18
46394;BME280;32099;53.588;10.176;2022-10-04T17:48:09;101468.13;;;14.91;72.35
46394;BME280;32099;53.588;10.176;2022-10-04T17:51:02;101468.91;;;14.85;72.57
46394;BME280;32099;53.588;10.176;2022-10-04T17:53:56;101462.03;;;14.74;73.00
46394;BME280;32099;53.588;10.176;2022-10-04T17:56:49;101453.53;;;14.69;73.51
46394;BME280;32099;53.588;10.176;2022-10-04T17:59:37;101454.91;;;14.64;73.56
46394;BME280;32099;53.588;10.176;2022-10-04T18:02:09;101454.66;;;14.59;73.73
46394;BME280;32099;53.588;10.176;2022-10-04T18:04:52;101455.72;;;14.58;73.34
46394;BME280;32099;53.588;10.176;2022-10-04T18:07:25;101452.69;;;14.53;73.63
46394;BME280;32099;53.588;10.176;2022-10-04T18:09:57;101448.81;;;14.47;73.43
46394;BME280;32099;53.588;10.176;2022-10-04T18:15:33;101458.41;;;14.37;73.59
46394;BME280;32099;53.588;10.176;2022-10-04T18:23:27;101463.50;;;14.25;74.13
46394;BME280;32099;53.588;10.176;2022-10-04T18:25:56;101463.31;;;14.26;73.86
46394;BME280;32099;53.588;10.176;2022-10-04T18:28:49;101452.53;;;14.25;73.74
46394;BME280;32099;53.588;10.176;2022-10-04T18:31:19;101473.63;;;14.24;74.07
46394;BME280;32099;53.588;10.176;2022-10-04T18:33:53;101463.03;;;14.21;73.95
46394;BME280;32099;53.588;10.176;2022-10-04T18:36:21;101450.09;;;14.15;73.80
46394;BME280;32099;53.588;10.176;2022-10-04T18:38:59;101443.66;;;14.08;74.28
46394;BME280;32099;53.588;10.176;2022-10-04T18:41:42;101431.84;;;14.07;74.50
46394;BME280;32099;53.588;10.176;2022-10-04T18:44:15;101437.69;;;14.04;74.46
46394;BME280;32099;53.588;10.176;2022-10-04T18:46:44;101439.41;;;14.05;74.40
46394;BME280;32099;53.588;10.176;2022-10-04T18:49:18;101430.31;;;14.04;74.83
46394;BME280;32099;53.588;10.176;2022-10-04T18:54:40;101421.03;;;13.91;74.89
46394;BME280;32099;53.588;10.176;2022-10-04T18:57:35;101414.63;;;13.83;75.05
46394;BME280;32099;53.588;10.176;2022-10-04T19:00:29;101408.47;;;13.81;75.25
46394;BME280;32099;53.588;10.176;2022-10-04T19:06:06;101416.41;;;13.76;75.40
46394;BME280;32099;53.588;10.176;2022-10-04T19:12:07;101427.66;;;13.81;75.43
46394;BME280;32099;53.588;10.176;2022-10-04T19:14:43;101434.47;;;13.85;74.90
46394;BME280;32099;53.588;10.176;2022-10-04T19:19:59;101451.78;;;13.86;75.20
46394;BME280;32099;53.588;10.176;2022-10-04T19:27:54;101478.97;;;13.87;74.71
46394;BME280;32099;53.588;10.176;2022-10-04T19:30:25;101477.19;;;13.80;75.08
46394;BME280;32099;53.588;10.176;2022-10-04T19:35:52;101457.31;;;13.63;75.62
46394;BME280;32099;53.588;10.176;2022-10-04T19:38:40;101432.34;;;13.57;75.84
46394;BME280;32099;53.588;10.176;2022-10-04T19:46:42;101434.63;;;13.54;75.92
46394;BME280;32099;53.588;10.176;2022-10-04T19:49:22;101440.09;;;13.54;75.75
46394;BME280;32099;53.588;10.176;2022-10-04T19:52:09;101431.88;;;13.54;75.87
46394;BME280;32099;53.588;10.176;2022-10-04T19:54:42;101432.34;;;13.57;75.71
46394;BME280;32099;53.588;10.176;2022-10-04T19:57:10;101440.78;;;13.56;75.83
46394;BME280;32099;53.588;10.176;2022-10-04T19:59:40;101449.00;;;13.56;75.52
46394;BME280;32099;53.588;10.176;2022-10-04T20:02:10;101439.25;;;13.53;75.50
46394;BME280;32099;53.588;10.176;2022-10-04T20:04:37;101437.72;;;13.51;75.83
46394;BME280;32099;53.588;10.176;2022-10-04T20:07:03;101445.28;;;13.49;75.66
46394;BME280;32099;53.588;10.176;2022-10-04T20:12:00;101441.78;;;13.40;75.77
46394;BME280;32099;53.588;10.176;2022-10-04T20:21:51;101441.19;;;13.21;76.45
46394;BME280;32099;53.588;10.176;2022-10-04T20:24:23;101438.00;;;13.18;76.44
46394;BME280;32099;53.588;10.176;2022-10-04T20:27:03;101435.97;;;13.11;76.75
46394;BME280;32099;53.588;10.176;2022-10-04T20:32:03;101437.06;;;13.02;76.81
46394;BME280;32099;53.588;10.176;2022-10-04T20:36:57;101437.13;;;12.94;77.01
46394;BME280;32099;53.588;10.176;2022-10-04T20:39:54;101447.41;;;12.92;77.52
46394;BME280;32099;53.588;10.176;2022-10-04T20:42:27;101447.59;;;12.90;77.39
46394;BME280;32099;53.588;10.176;2022-10-04T20:47:35;101429.47;;;12.89;77.61
46394;BME280;32099;53.588;10.176;2022-10-04T20:50:23;101420.78;;;12.86;77.90
46394;BME280;32099;53.588;10.176;2022-10-04T20:52:53;101422.66;;;12.85;78.12
46394;BME280;32099;53.588;10.176;2022-10-04T20:55:26;101418.72;;;12.88;77.78
46394;BME280;32099;53.588;10.176;2022-10-04T20:57:54;101418.31;;;12.91;77.79
46394;BME280;32099;53.588;10.176;2022-10-04T21:00:42;101408.94;;;12.93;78.03
46394;BME280;32099;53.588;10.176;2022-10-04T21:03:16;101410.59;;;12.94;77.75
46394;BME280;32099;53.588;10.176;2022-10-04T21:05:42;101414.69;;;12.99;77.60
46394;BME280;32099;53.588;10.176;2022-10-04T21:08:12;101415.38;;;13.01;77.50
46394;BME280;32099;53.588;10.176;2022-10-04T21:16:37;101401.66;;;13.01;78.06
46394;BME280;32099;53.588;10.176;2022-10-04T21:21:58;101384.03;;;13.03;78.05
46394;BME280;32099;53.588;10.176;2022-10-04T21:24:38;101385.91;;;13.03;78.17
46394;BME280;32099;53.588;10.176;2022-10-04T21:27:06;101404.53;;;13.07;78.01